createdAt,value
2023-06-30T00:01:49.083Z,100057.17
2023-06-30T00:04:18.701Z,100059.11
2023-06-30T00:06:50.093Z,100057.48
2023-06-30T00:09:19.440Z,100055.91
2023-06-30T00:11:51.288Z,100061.34
2023-06-30T00:14:21.315Z,100054.50
2023-06-30T00:16:51.973Z,100048.56
2023-06-30T00:19:21.438Z,100049.66
2023-06-30T00:21:53.112Z,100049.94
2023-06-30T00:24:22.085Z,100049.44
2023-06-30T00:26:51.271Z,100054.94
2023-06-30T00:29:20.170Z,100049.92
2023-06-30T00:31:49.802Z,100056.33
2023-06-30T00:34:18.561Z,100052.95
2023-06-30T00:36:50.285Z,100047.77
2023-06-30T00:39:19.200Z,100048.77
2023-06-30T00:41:48.700Z,100045.34
2023-06-30T00:44:17.497Z,100048.19
2023-06-30T00:46:46.424Z,100042.21
2023-06-30T00:49:16.336Z,100041.47
2023-06-30T00:51:45.403Z,100034.64
2023-06-30T00:54:15.772Z,100032.14
2023-06-30T00:56:44.493Z,100034.90
2023-06-30T00:59:17.754Z,100033.39
2023-06-30T01:01:54.966Z,100023.06
2023-06-30T01:04:31.741Z,100018.92
2023-06-30T01:07:09.936Z,100013.86
2023-06-30T01:09:50.139Z,100023.77
2023-06-30T01:12:19.626Z,100009.92
2023-06-30T01:14:50.748Z,100013.60
2023-06-30T01:17:22.345Z,100009.45
2023-06-30T01:19:54.097Z,100016.84
2023-06-30T01:22:27.104Z,100014.61
2023-06-30T01:25:00.810Z,100020.19
2023-06-30T01:27:32.921Z,100009.94
2023-06-30T01:30:02.604Z,100017.16
2023-06-30T01:32:31.615Z,100010.34
2023-06-30T01:35:00.477Z,100012.44
2023-06-30T01:37:29.232Z,100007.48
2023-06-30T01:40:01.551Z,100013.85
2023-06-30T01:42:32.259Z,100007.02
2023-06-30T01:45:02.837Z,100010.57
2023-06-30T01:47:33.858Z,100004.62
2023-06-30T01:50:02.904Z,100009.23
2023-06-30T01:52:32.464Z,100014.64
2023-06-30T01:55:02.801Z,100007.02
2023-06-30T01:57:31.861Z,100016.00
2023-06-30T02:00:00.889Z,100013.48
2023-06-30T02:02:29.747Z,100009.28
2023-06-30T02:04:59.038Z,100012.09
2023-06-30T02:07:27.872Z,100008.84
2023-06-30T02:09:56.606Z,100019.53
2023-06-30T02:12:25.520Z,100008.22
2023-06-30T02:14:54.317Z,100008.22
2023-06-30T02:17:28.991Z,100010.05
2023-06-30T02:19:58.112Z,100014.49
2023-06-30T02:22:27.139Z,100011.06
2023-06-30T02:24:56.814Z,100008.61
2023-06-30T02:27:27.094Z,100005.31
2023-06-30T02:29:57.140Z,100001.99
2023-06-30T02:32:25.943Z,100000.41
2023-06-30T02:34:55.009Z,100003.95
2023-06-30T02:37:23.812Z,100003.08
2023-06-30T02:39:53.147Z,99996.08
2023-06-30T02:42:21.928Z,99997.78
2023-06-30T02:44:50.928Z,99999.47
2023-06-30T02:47:19.876Z,99996.91
2023-06-30T02:49:49.984Z,99997.89
2023-06-30T02:52:19.740Z,99997.93
2023-06-30T02:54:51.236Z,99992.64
2023-06-30T02:57:22.199Z,99992.64
2023-06-30T02:59:51.133Z,99990.02
2023-06-30T03:02:20.075Z,99990.92
2023-06-30T03:04:51.414Z,100001.43
2023-06-30T03:07:20.513Z,99994.53
2023-06-30T03:09:51.685Z,99990.19
2023-06-30T03:12:20.610Z,99989.27
2023-06-30T03:14:52.408Z,99995.30
2023-06-30T03:17:21.455Z,99998.73
2023-06-30T03:19:53.386Z,99993.48
2023-06-30T03:22:22.903Z,100003.98
2023-06-30T03:24:51.759Z,100001.53
2023-06-30T03:27:20.505Z,100007.86
2023-06-30T03:29:52.743Z,99996.47
2023-06-30T03:32:21.666Z,100000.81
2023-06-30T03:34:53.730Z,99997.27
2023-06-30T03:37:22.588Z,99989.34
2023-06-30T03:39:52.575Z,99990.99
2023-06-30T03:42:22.180Z,99993.44
2023-06-30T03:44:51.142Z,99988.91
2023-06-30T03:47:19.917Z,99994.05
2023-06-30T03:49:50.136Z,99985.98
2023-06-30T03:52:19.041Z,99987.58
2023-06-30T03:54:49.019Z,99986.41
2023-06-30T03:57:17.937Z,99985.30
2023-06-30T03:59:50.051Z,99988.47
2023-06-30T04:02:20.502Z,99989.80
2023-06-30T04:04:50.060Z,99987.77
2023-06-30T04:07:20.133Z,99984.82
2023-06-30T04:09:50.063Z,99991.44
2023-06-30T04:12:18.904Z,99990.92
2023-06-30T04:14:49.585Z,99985.60
2023-06-30T04:17:18.444Z,99985.16
2023-06-30T04:19:48.174Z,99986.83
2023-06-30T04:22:17.068Z,99990.08
2023-06-30T04:24:45.818Z,100003.92
2023-06-30T04:27:14.728Z,99993.06
2023-06-30T04:29:46.609Z,99992.79
2023-06-30T04:32:18.462Z,99987.91
2023-06-30T04:34:50.234Z,99988.19
2023-06-30T04:37:19.920Z,99994.58
2023-06-30T04:39:50.937Z,99986.75
2023-06-30T04:42:19.684Z,99988.40
2023-06-30T04:44:51.288Z,99984.42
2023-06-30T04:47:20.186Z,99984.45
2023-06-30T04:49:49.816Z,99972.44
2023-06-30T04:52:18.604Z,99972.53
2023-06-30T04:54:48.814Z,99966.12
2023-06-30T04:57:17.631Z,99971.48
2023-06-30T04:59:46.812Z,99970.66
2023-06-30T05:02:17.002Z,99976.33
2023-06-30T05:04:54.721Z,99976.48
2023-06-30T05:07:23.669Z,99971.72
2023-06-30T05:09:52.626Z,99974.82
2023-06-30T05:12:21.457Z,99972.48
2023-06-30T05:14:51.197Z,99972.02
2023-06-30T05:17:20.485Z,99968.42
2023-06-30T05:19:52.475Z,99968.16
2023-06-30T05:22:21.636Z,99972.20
2023-06-30T05:24:51.228Z,99969.27
2023-06-30T05:27:20.114Z,99965.81
2023-06-30T05:29:51.721Z,99971.17
2023-06-30T05:32:20.734Z,99972.49
2023-06-30T05:34:52.692Z,99969.38
2023-06-30T05:37:22.090Z,99970.98
2023-06-30T05:39:50.983Z,99968.97
2023-06-30T05:42:20.146Z,99971.13
2023-06-30T05:44:51.455Z,99966.92
2023-06-30T05:47:20.262Z,99968.95
2023-06-30T05:49:49.984Z,99964.19
2023-06-30T05:52:21.959Z,99963.17
2023-06-30T05:54:50.803Z,99967.95
2023-06-30T05:57:19.736Z,99970.09
2023-06-30T05:59:49.442Z,99969.64
2023-06-30T06:02:18.586Z,99977.73
2023-06-30T06:04:48.603Z,99968.44
2023-06-30T06:07:17.627Z,99969.25
2023-06-30T06:09:46.927Z,99967.03
2023-06-30T06:12:17.351Z,99971.75
2023-06-30T06:14:49.548Z,99963.04
2023-06-30T06:17:17.489Z,99970.78
2023-06-30T06:19:53.193Z,99967.20
2023-06-30T06:22:22.002Z,99966.67
2023-06-30T06:24:50.956Z,99974.67
2023-06-30T06:27:19.750Z,99968.84
2023-06-30T06:29:50.891Z,99971.41
2023-06-30T06:32:19.776Z,99972.78
2023-06-30T06:34:51.133Z,99973.91
2023-06-30T06:37:20.420Z,99966.48
2023-06-30T06:39:51.882Z,99972.42
2023-06-30T06:42:20.873Z,99967.92
2023-06-30T06:44:51.264Z,99973.62
2023-06-30T06:47:52.627Z,99972.39
2023-06-30T06:50:22.020Z,99984.58
2023-06-30T06:52:50.950Z,99977.25
2023-06-30T06:55:19.831Z,99983.89
2023-06-30T06:57:51.195Z,99977.69
2023-06-30T07:00:20.766Z,99978.71
2023-06-30T07:02:53.086Z,99971.16
2023-06-30T07:05:22.248Z,99963.55
2023-06-30T07:07:51.630Z,99967.35
2023-06-30T07:10:20.398Z,99964.98
2023-06-30T07:12:50.038Z,99964.67
2023-06-30T07:15:18.916Z,99973.12
2023-06-30T07:17:49.216Z,99975.01
2023-06-30T07:20:18.217Z,99974.72
2023-06-30T07:22:49.414Z,99975.30
2023-06-30T07:25:18.249Z,99969.36
2023-06-30T07:27:53.543Z,99964.42
2023-06-30T07:30:24.043Z,99967.22
2023-06-30T07:32:52.990Z,99970.78
2023-06-30T07:35:23.296Z,99969.05
2023-06-30T07:37:52.663Z,99964.48
2023-06-30T07:40:24.011Z,99967.61
2023-06-30T07:42:54.017Z,99962.56
2023-06-30T07:45:23.098Z,99963.23
2023-06-30T07:47:52.838Z,99957.61
2023-06-30T07:50:21.989Z,99954.38
2023-06-30T07:52:51.073Z,99955.95
2023-06-30T07:55:20.724Z,99953.38
2023-06-30T07:57:52.331Z,99952.77
2023-06-30T08:00:21.857Z,99948.13
2023-06-30T08:02:54.381Z,99942.24
2023-06-30T08:05:24.247Z,99948.47
2023-06-30T08:07:53.363Z,99946.35
2023-06-30T08:10:22.477Z,99945.93
2023-06-30T08:12:51.471Z,99936.24
2023-06-30T08:15:20.463Z,99939.36
2023-06-30T08:17:53.989Z,99939.64
2023-06-30T08:20:26.828Z,99938.38
2023-06-30T08:22:56.450Z,99929.78
2023-06-30T08:25:26.020Z,99929.22
2023-06-30T08:27:54.850Z,99928.78
2023-06-30T08:30:25.295Z,99925.83
2023-06-30T08:32:55.224Z,99926.23
2023-06-30T08:35:24.566Z,99928.08
2023-06-30T08:37:54.341Z,99933.28
2023-06-30T08:40:31.501Z,99928.39
2023-06-30T08:43:06.203Z,99930.09
2023-06-30T08:45:35.219Z,99927.93
2023-06-30T08:48:06.310Z,99918.89
2023-06-30T08:50:38.540Z,99925.03
2023-06-30T08:53:07.513Z,99917.90
2023-06-30T08:55:36.652Z,99919.61
2023-06-30T08:58:13.261Z,99921.12
2023-06-30T09:00:46.725Z,99916.16
2023-06-30T09:03:18.729Z,99909.00
2023-06-30T09:05:53.615Z,99905.31
2023-06-30T09:08:25.086Z,99900.70
2023-06-30T09:10:56.693Z,99899.36
2023-06-30T09:13:27.027Z,99897.23
2023-06-30T09:15:58.723Z,99896.66
2023-06-30T09:18:27.677Z,99896.30
2023-06-30T09:20:57.107Z,99899.25
2023-06-30T09:23:27.110Z,99895.42
2023-06-30T09:25:55.973Z,99893.35
2023-06-30T09:28:25.802Z,99897.81
2023-06-30T09:31:00.633Z,99896.16
2023-06-30T09:33:29.433Z,99897.25
2023-06-30T09:35:59.462Z,99897.75
2023-06-30T09:38:30.217Z,99896.90
2023-06-30T09:40:59.109Z,99901.58
2023-06-30T09:43:28.580Z,99899.63
2023-06-30T09:45:58.659Z,99892.36
2023-06-30T09:48:31.007Z,99889.33
2023-06-30T09:51:00.671Z,99892.73
2023-06-30T09:53:37.405Z,99879.23
2023-06-30T09:56:07.164Z,99882.11
2023-06-30T09:58:38.436Z,99889.50
2023-06-30T10:01:08.117Z,99883.31
2023-06-30T10:03:49.025Z,99880.06
2023-06-30T10:06:20.963Z,99875.95
2023-06-30T10:08:51.696Z,99874.33
2023-06-30T10:11:23.602Z,99872.24
2023-06-30T10:13:55.865Z,99867.61
2023-06-30T10:16:25.103Z,99866.50
2023-06-30T10:18:56.029Z,99857.77
2023-06-30T10:21:25.228Z,99868.14
2023-06-30T10:23:55.117Z,99864.23
2023-06-30T10:26:26.174Z,99861.16
2023-06-30T10:28:56.205Z,99863.55
2023-06-30T10:31:26.457Z,99858.33
2023-06-30T10:33:56.512Z,99858.50
2023-06-30T10:36:27.184Z,99844.56
2023-06-30T10:38:56.270Z,99861.52
2023-06-30T10:41:25.344Z,99854.49
2023-06-30T10:44:10.727Z,99845.34
2023-06-30T10:46:46.686Z,99847.80
2023-06-30T10:49:24.217Z,99850.02
2023-06-30T10:51:55.052Z,99843.73
2023-06-30T10:54:28.023Z,99843.49
2023-06-30T10:57:08.688Z,99837.35
2023-06-30T10:59:42.362Z,99835.66
2023-06-30T11:02:23.717Z,99832.06
2023-06-30T11:04:53.679Z,99841.29
2023-06-30T11:07:26.592Z,99832.33
2023-06-30T11:10:04.421Z,99830.72
2023-06-30T11:13:02.506Z,99834.72
2023-06-30T11:15:38.126Z,99829.95
2023-06-30T11:18:12.022Z,99829.51
2023-06-30T11:20:57.602Z,99819.09
2023-06-30T11:23:29.353Z,99827.05
2023-06-30T11:25:58.881Z,99811.19
2023-06-30T11:28:29.255Z,99809.30
2023-06-30T11:31:01.822Z,99812.81
2023-06-30T11:33:30.115Z,99801.34
2023-06-30T11:36:00.213Z,99805.25
2023-06-30T11:38:29.257Z,99802.84
2023-06-30T11:41:00.674Z,99807.95
2023-06-30T11:43:34.320Z,99800.86
2023-06-30T11:46:03.436Z,99800.16
2023-06-30T11:48:38.611Z,99801.53
2023-06-30T11:51:07.850Z,99793.16
2023-06-30T11:53:37.101Z,99787.46
2023-06-30T11:56:06.511Z,99785.38
2023-06-30T11:58:35.335Z,99773.28
2023-06-30T12:01:05.058Z,99782.30
2023-06-30T12:03:36.571Z,99778.73
2023-06-30T12:06:06.573Z,99780.87
2023-06-30T12:08:37.916Z,99783.28
2023-06-30T12:11:07.678Z,99773.77
2023-06-30T12:13:41.624Z,99779.05
2023-06-30T12:16:13.265Z,99772.25
2023-06-30T12:18:46.039Z,99777.73
2023-06-30T12:21:14.756Z,99770.65
2023-06-30T12:23:45.734Z,99770.84
2023-06-30T12:26:15.736Z,99766.09
2023-06-30T12:28:44.523Z,99765.41
2023-06-30T12:31:13.612Z,99764.58
2023-06-30T12:33:52.309Z,99762.05
2023-06-30T12:36:23.100Z,99759.61
2023-06-30T12:38:52.542Z,99756.01
2023-06-30T12:41:21.466Z,99751.03
2023-06-30T12:43:52.285Z,99752.66
2023-06-30T12:46:21.324Z,99749.43
2023-06-30T12:48:51.251Z,99745.23
2023-06-30T12:51:20.270Z,99757.87
2023-06-30T12:53:51.448Z,99762.69
2023-06-30T12:56:20.280Z,99758.47
2023-06-30T12:58:51.558Z,99759.07
2023-06-30T13:01:20.783Z,99756.78
2023-06-30T13:03:50.465Z,99767.84
2023-06-30T13:06:19.871Z,99765.58
2023-06-30T13:08:50.074Z,99764.06
2023-06-30T13:11:19.081Z,99763.06
2023-06-30T13:13:50.133Z,99767.01
2023-06-30T13:16:19.337Z,99766.63
2023-06-30T13:18:51.147Z,99763.48
2023-06-30T13:21:50.460Z,99762.86
2023-06-30T13:24:27.067Z,99757.34
2023-06-30T13:26:59.802Z,99764.53
2023-06-30T13:29:28.892Z,99759.36
2023-06-30T13:31:58.413Z,99755.36
2023-06-30T13:34:27.296Z,99755.20
2023-06-30T13:36:58.369Z,99755.36
2023-06-30T13:39:27.866Z,99750.67
2023-06-30T13:41:56.874Z,99739.30
2023-06-30T13:44:29.525Z,99741.70
2023-06-30T13:46:58.850Z,99741.78
2023-06-30T13:49:27.556Z,99738.14
2023-06-30T13:51:56.594Z,99731.38
2023-06-30T13:54:25.526Z,99735.59
2023-06-30T13:56:54.517Z,99725.89
2023-06-30T13:59:23.721Z,99728.80
2023-06-30T14:01:52.723Z,99724.09
2023-06-30T14:04:21.973Z,99721.76
2023-06-30T14:06:51.846Z,99718.47
2023-06-30T14:09:20.721Z,99713.19
2023-06-30T14:11:50.538Z,99709.18
2023-06-30T14:14:19.630Z,99702.08
2023-06-30T14:16:49.345Z,99686.86
2023-06-30T14:19:18.330Z,99687.59
2023-06-30T14:21:47.160Z,99682.22
2023-06-30T14:24:17.974Z,99688.48
2023-06-30T14:26:46.996Z,99680.11
2023-06-30T14:29:16.008Z,99678.48
2023-06-30T14:31:44.966Z,99681.80
2023-06-30T14:34:13.808Z,99673.84
2023-06-30T14:36:43.313Z,99667.27
2023-06-30T14:39:15.195Z,99674.64
2023-06-30T14:41:57.290Z,99670.47
2023-06-30T14:44:30.171Z,99663.04
2023-06-30T14:47:00.668Z,99663.59
2023-06-30T14:49:29.394Z,99663.72
2023-06-30T14:52:00.406Z,99658.48
2023-06-30T14:54:29.412Z,99661.75
2023-06-30T14:56:58.378Z,99661.06
2023-06-30T14:59:27.296Z,99665.74
2023-06-30T15:01:56.626Z,99657.55
2023-06-30T15:04:25.520Z,99653.22
2023-06-30T15:06:54.815Z,99657.63
2023-06-30T15:09:23.702Z,99645.23
2023-06-30T15:11:52.581Z,99647.81
2023-06-30T15:14:21.436Z,99636.32
2023-06-30T15:16:52.862Z,99635.34
2023-06-30T15:19:21.808Z,99631.86
2023-06-30T15:21:52.729Z,99634.22
2023-06-30T15:24:21.620Z,99627.03
2023-06-30T15:26:53.047Z,99637.78
2023-06-30T15:29:22.121Z,99638.96
2023-06-30T15:31:55.151Z,99640.11
2023-06-30T15:34:24.602Z,99634.55
2023-06-30T15:36:53.552Z,99631.51
2023-06-30T15:39:23.440Z,99624.38
2023-06-30T15:41:53.322Z,99628.12
2023-06-30T15:44:22.500Z,99618.62
2023-06-30T15:46:52.017Z,99628.28
2023-06-30T15:49:22.043Z,99632.20
2023-06-30T15:51:51.512Z,99632.45
2023-06-30T15:54:20.267Z,99629.02
2023-06-30T15:56:51.557Z,99624.43
2023-06-30T15:59:20.391Z,99620.00
2023-06-30T16:01:51.884Z,99619.91
2023-06-30T16:04:21.530Z,99619.25
2023-06-30T16:06:52.957Z,99614.41
2023-06-30T16:09:22.060Z,99608.88
2023-06-30T16:11:51.798Z,99609.73
2023-06-30T16:14:20.569Z,99609.05
2023-06-30T16:16:50.507Z,99608.19
2023-06-30T16:19:19.376Z,99603.45
2023-06-30T16:21:49.625Z,99609.16
2023-06-30T16:24:19.245Z,99610.95
2023-06-30T16:26:50.952Z,99604.36
2023-06-30T16:29:19.957Z,99607.95
2023-06-30T16:31:51.579Z,99611.39
2023-06-30T16:34:20.698Z,99612.59
2023-06-30T16:36:53.596Z,99605.91
2023-06-30T16:39:22.879Z,99606.75
2023-06-30T16:41:53.071Z,99602.30
2023-06-30T16:44:22.994Z,99605.70
2023-06-30T16:46:54.133Z,99606.47
2023-06-30T16:49:24.981Z,99600.99
2023-06-30T16:51:54.208Z,99610.06
2023-06-30T16:54:32.398Z,99597.41
2023-06-30T16:58:14.916Z,99596.86
2023-06-30T17:00:56.546Z,99596.31
2023-06-30T17:03:25.789Z,99595.58
2023-06-30T17:06:05.072Z,99593.89
2023-06-30T17:08:54.115Z,99592.35
2023-06-30T17:11:23.530Z,99589.09
2023-06-30T17:13:54.337Z,99593.78
2023-06-30T17:16:25.282Z,99591.66
2023-06-30T17:18:58.285Z,99590.41
2023-06-30T17:21:27.759Z,99587.19
2023-06-30T17:23:56.921Z,99583.95
2023-06-30T17:26:26.372Z,99585.22
2023-06-30T17:28:58.802Z,99594.66
2023-06-30T17:31:28.113Z,99584.67
2023-06-30T17:33:57.539Z,99593.98
2023-06-30T17:36:27.532Z,99595.39
2023-06-30T17:38:58.619Z,99593.27
2023-06-30T17:41:27.729Z,99600.14
2023-06-30T17:44:00.670Z,99592.42
2023-06-30T17:46:29.797Z,99594.80
2023-06-30T17:49:24.046Z,99598.02
2023-06-30T17:51:54.313Z,99604.20
2023-06-30T17:54:23.754Z,99596.86
2023-06-30T17:56:53.151Z,99610.91
2023-06-30T17:59:22.464Z,99609.77
2023-06-30T18:01:52.267Z,99610.33
2023-06-30T18:04:21.725Z,99609.13
2023-06-30T18:07:03.387Z,99614.88
2023-06-30T18:09:34.326Z,99620.89
2023-06-30T18:12:06.291Z,99610.77
2023-06-30T18:14:38.265Z,99612.15
2023-06-30T18:17:08.826Z,99619.59
2023-06-30T18:19:39.741Z,99619.98
2023-06-30T18:22:09.205Z,99615.16
2023-06-30T18:24:38.357Z,99621.88
2023-06-30T18:27:08.994Z,99610.77
2023-06-30T18:29:40.032Z,99614.81
2023-06-30T18:32:11.325Z,99610.70
2023-06-30T18:34:40.855Z,99616.44
2023-06-30T18:37:10.143Z,99606.28
2023-06-30T18:39:42.163Z,99612.70
2023-06-30T18:42:34.173Z,99617.59
2023-06-30T18:45:11.762Z,99615.58
2023-06-30T18:47:41.720Z,99622.13
2023-06-30T18:50:12.304Z,99627.02
2023-06-30T18:52:44.474Z,99631.88
2023-06-30T18:55:16.012Z,99630.47
2023-06-30T18:57:51.777Z,99627.33
2023-06-30T19:00:23.406Z,99635.84
2023-06-30T19:02:53.053Z,99642.39
2023-06-30T19:05:22.656Z,99638.42
2023-06-30T19:07:51.875Z,99640.60
2023-06-30T19:10:24.857Z,99639.05
2023-06-30T19:12:54.461Z,99649.95
2023-06-30T19:15:24.075Z,99653.72
2023-06-30T19:17:55.158Z,99654.93
2023-06-30T19:20:27.551Z,99664.97
2023-06-30T19:22:57.307Z,99657.34
2023-06-30T19:25:31.478Z,99655.06
2023-06-30T19:28:02.930Z,99663.30
2023-06-30T19:30:31.989Z,99663.56
2023-06-30T19:33:04.423Z,99667.44
2023-06-30T19:35:37.421Z,99671.20
2023-06-30T19:38:06.714Z,99671.44
2023-06-30T19:40:37.761Z,99676.30
2023-06-30T19:43:06.923Z,99676.64
2023-06-30T19:45:39.058Z,99676.17
2023-06-30T19:48:09.348Z,99677.38
2023-06-30T19:50:42.017Z,99687.56
2023-06-30T19:53:11.089Z,99696.14
2023-06-30T19:55:41.686Z,99699.39
2023-06-30T19:58:16.578Z,99699.35
2023-06-30T20:00:45.648Z,99697.89
2023-06-30T20:03:14.965Z,99697.36
2023-06-30T20:05:45.633Z,99699.59
2023-06-30T20:08:17.050Z,99698.33
2023-06-30T20:10:46.233Z,99703.04
2023-06-30T20:13:24.950Z,99691.73
2023-06-30T20:15:57.164Z,99697.20
2023-06-30T20:18:28.851Z,99698.20
2023-06-30T20:21:01.621Z,99687.50
2023-06-30T20:23:30.759Z,99679.58
2023-06-30T20:26:02.335Z,99678.51
2023-06-30T20:28:31.717Z,99671.17
2023-06-30T20:31:03.303Z,99676.80
2023-06-30T20:33:32.892Z,99670.12
2023-06-30T20:36:02.158Z,99668.87
2023-06-30T20:38:46.920Z,99665.91
2023-06-30T20:41:20.137Z,99674.27
2023-06-30T20:43:53.765Z,99665.80
2023-06-30T20:46:26.007Z,99673.97
2023-06-30T20:49:03.692Z,99667.91
2023-06-30T20:51:45.975Z,99668.02
2023-06-30T20:54:17.772Z,99674.28
2023-06-30T20:56:47.074Z,99675.23
2023-06-30T20:59:17.691Z,99675.35
2023-06-30T21:01:47.285Z,99679.91
2023-06-30T21:04:21.611Z,99689.01
2023-06-30T21:06:52.476Z,99692.84
2023-06-30T21:09:22.333Z,99687.73
2023-06-30T21:11:56.507Z,99694.94
2023-06-30T21:14:33.830Z,99692.45
2023-06-30T21:17:04.062Z,99697.98
2023-06-30T21:19:33.908Z,99696.48
2023-06-30T21:22:06.209Z,99693.39
2023-06-30T21:24:46.932Z,99698.17
2023-06-30T21:27:16.479Z,99701.09
2023-06-30T21:29:46.097Z,99696.10
2023-06-30T21:32:15.258Z,99698.03
2023-06-30T21:34:44.429Z,99702.66
2023-06-30T21:37:14.395Z,99709.88
2023-06-30T21:39:45.509Z,99711.02
2023-06-30T21:42:17.077Z,99712.16
2023-06-30T21:44:47.195Z,99711.63
2023-06-30T21:47:17.847Z,99708.41
2023-06-30T21:49:47.470Z,99706.94
2023-06-30T21:52:17.388Z,99720.48
2023-06-30T21:54:48.392Z,99719.26
2023-06-30T21:57:22.705Z,99715.58
2023-06-30T21:59:53.572Z,99719.54
2023-06-30T22:02:22.835Z,99714.53
2023-06-30T22:04:53.126Z,99722.77
2023-06-30T22:07:22.702Z,99718.78
2023-06-30T22:09:53.229Z,99718.34
2023-06-30T22:12:22.948Z,99717.11
2023-06-30T22:14:55.733Z,99720.41
2023-06-30T22:17:28.092Z,99716.45
2023-06-30T22:19:57.311Z,99711.61
2023-06-30T22:22:26.297Z,99715.38
2023-06-30T22:25:00.394Z,99706.78
2023-06-30T22:27:34.930Z,99706.02
2023-06-30T22:30:12.700Z,99705.36
2023-06-30T22:32:41.942Z,99709.89
2023-06-30T22:35:13.458Z,99705.64
2023-06-30T22:37:54.921Z,99714.52
2023-06-30T22:40:24.335Z,99712.15
2023-06-30T22:42:54.395Z,99708.84
2023-06-30T22:45:29.015Z,99709.02
2023-06-30T22:47:58.095Z,99707.28
2023-06-30T22:50:29.014Z,99710.02
2023-06-30T22:52:58.666Z,99710.13
2023-06-30T22:55:31.441Z,99711.07
2023-06-30T22:58:02.155Z,99708.49
2023-06-30T23:00:31.608Z,99706.89
2023-06-30T23:03:03.087Z,99699.06
2023-06-30T23:05:35.612Z,99701.78
2023-06-30T23:08:07.320Z,99702.81
2023-06-30T23:10:36.562Z,99690.54
2023-06-30T23:13:06.371Z,99688.77
2023-06-30T23:15:35.373Z,99682.61
2023-06-30T23:18:06.117Z,99683.48
2023-06-30T23:20:35.575Z,99685.19
2023-06-30T23:23:04.999Z,99679.03
2023-06-30T23:25:38.113Z,99679.97
2023-06-30T23:28:07.404Z,99674.68
2023-06-30T23:30:37.237Z,99671.20
2023-06-30T23:33:08.829Z,99666.75
2023-06-30T23:35:39.459Z,99661.39
2023-06-30T23:38:13.507Z,99657.98
2023-06-30T23:40:46.649Z,99655.34
2023-06-30T23:43:18.776Z,99657.05
2023-06-30T23:45:48.375Z,99655.41
2023-06-30T23:48:22.395Z,99660.80
2023-06-30T23:50:54.080Z,99658.27
2023-06-30T23:53:24.064Z,99661.84
2023-06-30T23:55:53.373Z,99653.05
2023-06-30T23:58:25.125Z,99658.44
